Time;durP1;ratioP1;P1;durP2;ratioP2;P2;SDS_P1;SDS_P2;PMS_P1;PMS_P2;Temp;Humidity;BMP_temperature;BMP_pressure;BME280_temperature;BME280_humidity;BME280_pressure;Samples;Min_cycle;Max_cycle;Signal;HPM_P1;HPM_P2
2022/12/18 00:00:04;;;;;;;5.50;4.60;;;;;;;;;;5032891;28;20036;-73
2022/12/18 00:02:33;;;;;;;6.70;4.90;;;;;;;;;;5032962;28;20438;-73
2022/12/18 00:05:02;;;;;;;6.17;4.60;;;;;;;;;;5032700;28;20022;-73
2022/12/18 00:07:34;;;;;;;6.33;4.67;;;;;;;;;;5032489;28;20025;-73
2022/12/18 00:10:03;;;;;;;6.63;4.85;;;;;;;;;;5032554;28;20026;-73
2022/12/18 00:12:30;;;;;;;7.10;4.93;;;;;;;;;;5032042;28;20071;-72
2022/12/18 00:14:56;;;;;;;6.60;4.50;;;;;;;;;;5034241;28;20038;-73
2022/12/18 00:17:25;;;;;;;7.50;5.23;;;;;;;;;;5033006;28;20029;-73
2022/12/18 00:19:52;;;;;;;7.17;4.80;;;;;;;;;;5031875;28;20034;-73
2022/12/18 00:22:21;;;;;;;7.70;5.30;;;;;;;;;;5032757;28;20083;-73
2022/12/18 00:24:47;;;;;;;6.47;5.03;;;;;;;;;;5033338;28;20036;-73
2022/12/18 00:27:13;;;;;;;6.63;4.67;;;;;;;;;;5032158;28;20423;-72
2022/12/18 00:29:39;;;;;;;7.57;5.50;;;;;;;;;;5032776;28;20526;-73
2022/12/18 00:32:05;;;;;;;6.80;5.10;;;;;;;;;;5032385;28;20032;-73
2022/12/18 00:34:31;;;;;;;6.33;4.73;;;;;;;;;;5032724;28;20124;-72
2022/12/18 00:36:57;;;;;;;7.30;5.30;;;;;;;;;;5032518;28;20384;-73
2022/12/18 00:39:24;;;;;;;6.80;4.97;;;;;;;;;;5033042;28;20036;-73
2022/12/18 00:44:34;;;;;;;5.97;4.67;;;;;;;;;;5032325;28;20052;-73
2022/12/18 00:47:01;;;;;;;7.27;4.57;;;;;;;;;;5031974;28;20032;-72
2022/12/18 00:49:27;;;;;;;7.30;4.93;;;;;;;;;;5032538;28;20499;-73
2022/12/18 00:51:53;;;;;;;7.63;5.60;;;;;;;;;;5030647;28;20622;-73
2022/12/18 00:54:19;;;;;;;7.47;5.27;;;;;;;;;;5031059;28;20057;-72
2022/12/18 00:56:45;;;;;;;6.77;4.80;;;;;;;;;;5032090;28;20051;-73
2022/12/18 00:59:11;;;;;;;6.80;4.57;;;;;;;;;;5030965;28;20029;-73
2022/12/18 01:01:37;;;;;;;6.93;4.93;;;;;;;;;;5031004;28;20029;-73
2022/12/18 01:04:04;;;;;;;7.63;5.00;;;;;;;;;;5031897;28;20475;-73
2022/12/18 01:06:30;;;;;;;6.77;4.97;;;;;;;;;;5032357;28;20033;-73
2022/12/18 01:08:57;;;;;;;6.87;4.80;;;;;;;;;;5032208;28;20021;-73
2022/12/18 01:11:23;;;;;;;8.20;5.27;;;;;;;;;;5031957;28;20018;-73
2022/12/18 01:13:49;;;;;;;6.53;4.87;;;;;;;;;;5030999;28;20043;-73
2022/12/18 01:16:17;;;;;;;9.20;5.43;;;;;;;;;;5030989;28;20025;-73
2022/12/18 01:18:43;;;;;;;8.90;5.60;;;;;;;;;;5032126;28;20033;-73
2022/12/18 01:21:11;;;;;;;8.13;5.37;;;;;;;;;;5030155;28;20044;-73
2022/12/18 01:23:37;;;;;;;7.53;4.87;;;;;;;;;;5031970;28;20033;-73
2022/12/18 01:26:11;;;;;;;7.53;5.57;;;;;;;;;;5030510;28;20030;-73
2022/12/18 01:28:38;;;;;;;8.97;5.37;;;;;;;;;;5032328;28;20243;-73
2022/12/18 01:31:14;;;;;;;7.63;5.40;;;;;;;;;;5032672;28;20048;-73
2022/12/18 01:33:40;;;;;;;9.07;6.10;;;;;;;;;;5031206;28;20123;-73
2022/12/18 01:36:06;;;;;;;9.70;5.80;;;;;;;;;;5032419;28;20021;-73
2022/12/18 01:38:38;;;;;;;9.40;6.07;;;;;;;;;;5032054;28;20025;-72
2022/12/18 01:41:07;;;;;;;7.67;5.67;;;;;;;;;;5031735;28;20077;-73
2022/12/18 01:43:52;;;;;;;8.13;5.90;;;;;;;;;;5032034;28;20053;-73
2022/12/18 01:46:19;;;;;;;8.03;5.80;;;;;;;;;;5031441;28;20057;-73
2022/12/18 01:48:47;;;;;;;8.40;5.47;;;;;;;;;;5031183;28;20072;-73
2022/12/18 01:51:16;;;;;;;8.33;6.07;;;;;;;;;;5031739;28;20036;-72
2022/12/18 01:53:47;;;;;;;8.63;5.93;;;;;;;;;;5031417;28;20030;-73
2022/12/18 01:56:14;;;;;;;8.57;5.50;;;;;;;;;;5031982;28;20026;-72
2022/12/18 01:58:44;;;;;;;8.83;5.77;;;;;;;;;;5030211;28;20022;-73
2022/12/18 02:01:10;;;;;;;8.83;6.00;;;;;;;;;;5028622;28;20084;-73
2022/12/18 02:03:36;;;;;;;7.37;5.37;;;;;;;;;;5028490;28;20029;-72
2022/12/18 02:06:06;;;;;;;8.00;6.10;;;;;;;;;;5030513;28;20026;-72
2022/12/18 02:08:33;;;;;;;8.03;5.40;;;;;;;;;;5031655;28;20527;-71
2022/12/18 02:11:25;;;;;;;8.33;5.77;;;;;;;;;;5031137;28;20474;-72
2022/12/18 02:13:55;;;;;;;8.27;5.90;;;;;;;;;;5041394;28;20044;-72
2022/12/18 02:16:36;;;;;;;7.77;5.50;;;;;;;;;;5035469;28;20032;-73
2022/12/18 02:19:06;;;;;;;8.03;5.47;;;;;;;;;;5034647;28;20705;-73
2022/12/18 02:21:43;;;;;;;10.40;6.73;;;;;;;;;;5033711;28;20029;-72
2022/12/18 02:24:30;;;;;;;8.33;6.17;;;;;;;;;;5034100;28;20386;-73
2022/12/18 02:26:58;;;;;;;8.50;5.73;;;;;;;;;;5034519;28;20503;-73
2022/12/18 02:29:29;;;;;;;7.87;5.70;;;;;;;;;;5034315;28;20498;-72
2022/12/18 02:31:57;;;;;;;8.50;6.10;;;;;;;;;;5033881;28;20430;-73
2022/12/18 02:34:26;;;;;;;9.73;5.87;;;;;;;;;;5033395;28;20041;-73
2022/12/18 02:36:54;;;;;;;9.63;6.33;;;;;;;;;;5033940;28;20464;-73
2022/12/18 02:39:22;;;;;;;8.37;6.30;;;;;;;;;;5033857;28;20479;-73
2022/12/18 02:41:48;;;;;;;9.13;6.43;;;;;;;;;;5033994;28;20053;-73
2022/12/18 02:44:15;;;;;;;10.77;6.50;;;;;;;;;;5032584;28;20030;-73
2022/12/18 02:46:41;;;;;;;9.17;6.60;;;;;;;;;;5033503;28;20097;-73
2022/12/18 02:49:25;;;;;;;9.13;6.10;;;;;;;;;;5032906;28;20029;-72
2022/12/18 02:51:54;;;;;;;9.47;6.80;;;;;;;;;;5033438;28;20026;-72
2022/12/18 02:54:40;;;;;;;10.87;6.40;;;;;;;;;;5033205;28;20061;-73
2022/12/18 02:57:15;;;;;;;8.17;6.13;;;;;;;;;;5033032;28;20372;-72
2022/12/18 02:59:45;;;;;;;9.60;6.30;;;;;;;;;;5032867;28;20085;-73
2022/12/18 03:02:11;;;;;;;10.67;6.63;;;;;;;;;;5033301;28;20824;-73
2022/12/18 03:04:44;;;;;;;9.73;6.57;;;;;;;;;;5033395;28;20135;-72
2022/12/18 03:07:16;;;;;;;8.97;6.03;;;;;;;;;;5033481;28;20061;-72
2022/12/18 03:09:44;;;;;;;9.07;6.20;;;;;;;;;;5032902;28;20155;-72
2022/12/18 03:12:22;;;;;;;8.30;6.23;;;;;;;;;;5033224;28;20029;-72
2022/12/18 03:14:51;;;;;;;9.37;6.20;;;;;;;;;;5033410;28;20652;-73
2022/12/18 03:17:20;;;;;;;9.73;6.13;;;;;;;;;;5032832;28;20028;-73
2022/12/18 03:19:46;;;;;;;10.70;6.13;;;;;;;;;;5033701;28;20025;-72
2022/12/18 03:22:14;;;;;;;8.93;6.23;;;;;;;;;;5033853;28;20026;-72
2022/12/18 03:24:40;;;;;;;9.00;5.97;;;;;;;;;;5032920;28;20101;-72
2022/12/18 03:27:09;;;;;;;9.57;6.20;;;;;;;;;;5033163;28;20018;-72
2022/12/18 03:30:16;;;;;;;8.67;6.27;;;;;;;;;;5032831;28;20028;-72
2022/12/18 03:33:02;;;;;;;8.97;6.20;;;;;;;;;;5051716;28;20029;-72
2022/12/18 03:38:35;;;;;;;11.77;6.23;;;;;;;;;;5050390;28;20135;-72
2022/12/18 03:41:20;;;;;;;9.88;6.93;;;;;;;;;;5049904;28;20047;-72
2022/12/18 03:44:07;;;;;;;9.03;6.23;;;;;;;;;;5050686;28;20037;-72
2022/12/18 03:53:05;;;;;;;14.03;6.93;;;;;;;;;;5037070;28;20028;-71
2022/12/18 03:55:35;;;;;;;9.00;6.27;;;;;;;;;;5033510;28;20033;-72
2022/12/18 03:58:02;;;;;;;9.47;6.60;;;;;;;;;;5034347;28;20047;-72
2022/12/18 04:00:30;;;;;;;10.20;6.60;;;;;;;;;;5033873;28;20026;-73
2022/12/18 04:02:57;;;;;;;10.77;6.77;;;;;;;;;;5032582;28;20451;-72
2022/12/18 04:05:25;;;;;;;9.63;6.80;;;;;;;;;;5033950;28;20441;-72
2022/12/18 04:07:52;;;;;;;14.93;7.50;;;;;;;;;;5032466;28;20480;-72
2022/12/18 04:10:18;;;;;;;13.17;10.73;;;;;;;;;;5033844;28;20033;-72
2022/12/18 04:12:44;;;;;;;12.53;9.40;;;;;;;;;;5034332;28;20032;-72
2022/12/18 04:15:11;;;;;;;12.20;8.40;;;;;;;;;;5033637;28;20368;-72
2022/12/18 04:17:38;;;;;;;11.07;7.40;;;;;;;;;;5033649;28;20038;-73
2022/12/18 04:20:04;;;;;;;10.00;7.40;;;;;;;;;;5033432;28;20514;-73
2022/12/18 04:22:30;;;;;;;9.60;6.80;;;;;;;;;;5033151;28;20478;-72
2022/12/18 04:24:56;;;;;;;9.57;6.90;;;;;;;;;;5033502;28;20025;-72
2022/12/18 04:27:22;;;;;;;10.37;6.90;;;;;;;;;;5033497;28;20480;-72
2022/12/18 04:29:48;;;;;;;10.57;6.37;;;;;;;;;;5033681;28;20108;-72
2022/12/18 04:32:15;;;;;;;9.13;6.57;;;;;;;;;;5031984;28;20084;-72
2022/12/18 04:34:41;;;;;;;11.27;7.60;;;;;;;;;;5031593;28;20053;-72
2022/12/18 04:37:07;;;;;;;11.63;7.17;;;;;;;;;;5031889;28;20029;-72
2022/12/18 04:39:33;;;;;;;11.80;7.47;;;;;;;;;;5033074;28;20025;-72
2022/12/18 04:41:59;;;;;;;11.27;7.30;;;;;;;;;;5033238;28;20034;-72
2022/12/18 04:44:25;;;;;;;10.80;7.40;;;;;;;;;;5032899;28;20112;-72
2022/12/18 04:46:51;;;;;;;9.00;6.23;;;;;;;;;;5033048;28;20018;-73
2022/12/18 04:49:17;;;;;;;12.13;7.70;;;;;;;;;;5033307;28;20472;-73
2022/12/18 04:51:43;;;;;;;10.40;7.03;;;;;;;;;;5033031;28;20073;-72
2022/12/18 04:54:09;;;;;;;10.70;6.87;;;;;;;;;;5032694;28;20505;-72
2022/12/18 04:56:35;;;;;;;11.47;8.00;;;;;;;;;;5032471;28;20076;-73
2022/12/18 04:59:01;;;;;;;11.83;7.63;;;;;;;;;;5033236;28;20087;-73
2022/12/18 05:01:27;;;;;;;15.57;8.70;;;;;;;;;;5032590;28;20030;-72
2022/12/18 05:03:53;;;;;;;13.70;7.77;;;;;;;;;;5031285;28;20055;-72
2022/12/18 05:06:20;;;;;;;11.33;7.37;;;;;;;;;;5031652;28;20025;-73
2022/12/18 05:08:46;;;;;;;11.83;8.97;;;;;;;;;;5032950;28;20026;-73
2022/12/18 05:11:16;;;;;;;11.40;8.67;;;;;;;;;;5032720;28;20394;-73
2022/12/18 05:13:44;;;;;;;13.07;10.07;;;;;;;;;;5033006;28;20038;-73
2022/12/18 05:16:10;;;;;;;12.47;9.20;;;;;;;;;;5032913;28;20021;-73
2022/12/18 05:18:36;;;;;;;12.40;8.63;;;;;;;;;;5033059;28;20075;-72
2022/12/18 05:21:03;;;;;;;11.07;8.40;;;;;;;;;;5032698;28;20036;-73
2022/12/18 05:23:56;;;;;;;11.83;8.50;;;;;;;;;;5032538;28;20017;-73
2022/12/18 05:26:22;;;;;;;10.73;8.38;;;;;;;;;;5032854;28;20033;-73
2022/12/18 05:28:52;;;;;;;10.93;7.70;;;;;;;;;;5032737;28;20032;-73
2022/12/18 05:31:18;;;;;;;11.93;8.30;;;;;;;;;;5032290;28;20052;-72
2022/12/18 05:33:56;;;;;;;12.77;8.83;;;;;;;;;;5032013;28;20088;-73
2022/12/18 05:36:22;;;;;;;12.50;8.10;;;;;;;;;;5032742;28;20022;-72
2022/12/18 05:38:48;;;;;;;11.73;8.17;;;;;;;;;;5032026;28;20030;-72
2022/12/18 05:41:14;;;;;;;13.20;8.10;;;;;;;;;;5032455;28;20021;-73
2022/12/18 05:43:44;;;;;;;13.00;8.27;;;;;;;;;;5031348;28;20021;-72
2022/12/18 05:46:15;;;;;;;13.27;7.97;;;;;;;;;;5031598;28;20045;-72
2022/12/18 05:48:42;;;;;;;13.37;8.10;;;;;;;;;;5031902;28;20025;-73
2022/12/18 05:51:09;;;;;;;11.93;8.00;;;;;;;;;;5031817;28;20066;-73
2022/12/18 05:53:36;;;;;;;13.30;8.70;;;;;;;;;;5031546;28;20033;-73
2022/12/18 05:56:05;;;;;;;12.07;8.43;;;;;;;;;;5032341;28;20057;-72
2022/12/18 05:58:32;;;;;;;16.63;11.13;;;;;;;;;;5030263;28;20391;-73
2022/12/18 06:00:58;;;;;;;15.67;10.50;;;;;;;;;;5031935;28;20539;-73
2022/12/18 06:03:24;;;;;;;14.53;9.97;;;;;;;;;;5031637;28;20112;-73
2022/12/18 06:05:50;;;;;;;16.43;10.60;;;;;;;;;;5030414;28;20087;-73
2022/12/18 06:08:16;;;;;;;14.87;10.10;;;;;;;;;;5029830;28;20025;-72
2022/12/18 06:10:42;;;;;;;14.93;9.10;;;;;;;;;;5030303;28;20022;-73
2022/12/18 06:13:09;;;;;;;13.97;9.10;;;;;;;;;;5030595;28;20022;-73
2022/12/18 06:15:38;;;;;;;15.33;10.57;;;;;;;;;;5029698;28;20026;-73
2022/12/18 06:18:04;;;;;;;16.13;9.50;;;;;;;;;;5030390;28;20476;-73
2022/12/18 06:20:31;;;;;;;18.63;10.83;;;;;;;;;;5030531;28;20068;-73
2022/12/18 06:22:57;;;;;;;18.77;12.50;;;;;;;;;;5030305;28;20476;-73
2022/12/18 06:25:23;;;;;;;16.23;11.57;;;;;;;;;;5031003;28;20021;-73
2022/12/18 06:27:49;;;;;;;25.23;15.40;;;;;;;;;;5031235;28;20097;-73
2022/12/18 06:30:15;;;;;;;25.30;14.97;;;;;;;;;;5030441;28;20022;-73
2022/12/18 06:32:41;;;;;;;24.57;15.83;;;;;;;;;;5029243;28;20033;-73
2022/12/18 06:35:07;;;;;;;26.37;16.77;;;;;;;;;;5029912;28;20105;-74
2022/12/18 06:37:33;;;;;;;26.73;16.53;;;;;;;;;;5030574;28;20037;-73
2022/12/18 06:40:00;;;;;;;25.90;17.23;;;;;;;;;;5031069;28;20026;-72
2022/12/18 06:42:26;;;;;;;35.13;22.13;;;;;;;;;;5030786;28;20018;-73
2022/12/18 06:44:53;;;;;;;35.07;21.53;;;;;;;;;;5030790;28;20083;-73
2022/12/18 06:47:19;;;;;;;25.83;16.40;;;;;;;;;;5030576;28;20159;-73
2022/12/18 06:49:45;;;;;;;17.83;11.70;;;;;;;;;;5029460;28;20029;-73
2022/12/18 06:52:11;;;;;;;16.80;10.90;;;;;;;;;;5031252;28;20091;-72
2022/12/18 06:54:37;;;;;;;14.47;10.23;;;;;;;;;;5030281;28;20033;-72
2022/12/18 06:57:03;;;;;;;17.40;10.43;;;;;;;;;;5029933;28;20026;-73
2022/12/18 06:59:30;;;;;;;16.70;11.20;;;;;;;;;;5032814;28;20659;-72
2022/12/18 07:01:56;;;;;;;17.93;10.90;;;;;;;;;;5035349;28;20108;-72
2022/12/18 07:04:22;;;;;;;16.37;10.10;;;;;;;;;;5034956;28;20483;-72
2022/12/18 07:06:48;;;;;;;16.07;10.07;;;;;;;;;;5033732;28;20041;-72
2022/12/18 07:09:14;;;;;;;16.17;10.17;;;;;;;;;;5034400;28;20037;-73
2022/12/18 07:11:43;;;;;;;18.77;11.37;;;;;;;;;;5034288;28;20032;-72
2022/12/18 07:14:33;;;;;;;15.77;9.40;;;;;;;;;;5032902;28;20038;-72
2022/12/18 07:17:07;;;;;;;14.30;9.57;;;;;;;;;;5036549;28;20065;-73
2022/12/18 07:19:52;;;;;;;;;;;;;;;;;;;;;
2022/12/18 07:22:22;;;;;;;15.73;10.27;;;;;;;;;;5034227;28;20399;-72
2022/12/18 07:24:49;;;;;;;15.33;9.87;;;;;;;;;;5033904;28;20060;-72
2022/12/18 07:27:18;;;;;;;14.30;9.53;;;;;;;;;;5034115;28;20102;-73
2022/12/18 07:30:05;;;;;;;16.20;10.20;;;;;;;;;;5032547;28;20022;-72
2022/12/18 07:32:31;;;;;;;16.80;10.67;;;;;;;;;;5033483;28;20438;-72
2022/12/18 07:35:06;;;;;;;16.43;10.57;;;;;;;;;;5033214;28;20057;-72
2022/12/18 07:37:45;;;;;;;15.40;10.30;;;;;;;;;;5033084;28;20021;-72
2022/12/18 07:40:20;;;;;;;15.10;10.53;;;;;;;;;;5033035;28;20414;-72
2022/12/18 07:42:47;;;;;;;13.93;9.23;;;;;;;;;;5032511;28;20551;-72
2022/12/18 07:45:13;;;;;;;14.80;10.57;;;;;;;;;;5033739;28;20095;-72
2022/12/18 07:47:41;;;;;;;16.30;10.20;;;;;;;;;;5033520;28;20108;-72
2022/12/18 07:50:07;;;;;;;15.43;10.60;;;;;;;;;;5033359;28;20021;-72
2022/12/18 07:52:33;;;;;;;17.93;10.50;;;;;;;;;;5032565;28;20048;-72
2022/12/18 07:54:59;;;;;;;14.77;10.27;;;;;;;;;;5033802;28;20048;-72
2022/12/18 07:57:25;;;;;;;16.93;11.20;;;;;;;;;;5033549;28;20365;-73
2022/12/18 07:59:51;;;;;;;16.67;10.60;;;;;;;;;;5033656;28;20032;-72
2022/12/18 08:02:17;;;;;;;15.93;11.00;;;;;;;;;;5035472;28;20478;-71
2022/12/18 08:04:43;;;;;;;16.80;10.63;;;;;;;;;;5034261;28;20025;-73
2022/12/18 08:07:10;;;;;;;19.53;12.03;;;;;;;;;;5034573;28;20503;-73
2022/12/18 08:09:36;;;;;;;16.90;10.97;;;;;;;;;;5032417;28;20033;-73
2022/12/18 08:12:02;;;;;;;19.83;11.77;;;;;;;;;;5034302;28;20022;-72
2022/12/18 08:14:28;;;;;;;16.33;11.17;;;;;;;;;;5033694;28;20064;-72
2022/12/18 08:16:54;;;;;;;18.97;11.93;;;;;;;;;;5033311;28;20476;-72
2022/12/18 08:19:20;;;;;;;16.33;11.40;;;;;;;;;;5033035;28;20040;-73
2022/12/18 08:21:46;;;;;;;16.37;10.80;;;;;;;;;;5033090;28;20025;-73
2022/12/18 08:24:12;;;;;;;20.37;12.13;;;;;;;;;;5032158;28;20079;-73
2022/12/18 08:26:38;;;;;;;16.87;11.57;;;;;;;;;;5031805;28;20030;-73
2022/12/18 08:29:04;;;;;;;14.93;10.40;;;;;;;;;;5032307;28;20534;-72
2022/12/18 08:31:31;;;;;;;16.63;11.90;;;;;;;;;;5032156;28;20029;-73
2022/12/18 08:33:57;;;;;;;17.87;12.33;;;;;;;;;;5033538;28;20107;-72
2022/12/18 08:36:24;;;;;;;17.87;12.33;;;;;;;;;;5032665;28;20517;-72
2022/12/18 08:38:50;;;;;;;18.97;11.80;;;;;;;;;;5033865;28;20034;-72
2022/12/18 08:41:16;;;;;;;17.37;12.03;;;;;;;;;;5033774;28;20036;-73
2022/12/18 08:46:31;;;;;;;17.13;11.00;;;;;;;;;;5033961;28;20506;-73
2022/12/18 08:48:57;;;;;;;16.40;10.30;;;;;;;;;;5034039;28;20105;-71
2022/12/18 08:51:24;;;;;;;16.07;11.50;;;;;;;;;;5033879;28;20029;-76
2022/12/18 08:53:50;;;;;;;16.70;11.90;;;;;;;;;;5032995;28;20048;-76
2022/12/18 08:56:17;;;;;;;16.07;11.33;;;;;;;;;;5033869;28;20017;-75
2022/12/18 08:59:04;;;;;;;15.90;10.47;;;;;;;;;;5033787;28;20399;-75
2022/12/18 09:01:30;;;;;;;17.73;10.97;;;;;;;;;;5033005;28;20040;-74
2022/12/18 09:03:56;;;;;;;15.53;10.50;;;;;;;;;;5033848;28;20032;-76
2022/12/18 09:06:26;;;;;;;16.73;11.13;;;;;;;;;;5033108;28;20356;-74
2022/12/18 09:08:52;;;;;;;17.57;10.70;;;;;;;;;;5033738;28;20108;-74
2022/12/18 09:11:26;;;;;;;15.90;11.10;;;;;;;;;;5033764;28;20442;-73
2022/12/18 09:13:53;;;;;;;16.20;11.47;;;;;;;;;;5033548;28;20402;-73
2022/12/18 09:16:20;;;;;;;15.80;10.83;;;;;;;;;;5033383;28;20039;-73
2022/12/18 09:18:58;;;;;;;16.13;10.97;;;;;;;;;;5033182;28;20029;-74
2022/12/18 09:21:43;;;;;;;16.07;10.67;;;;;;;;;;5032454;28;20028;-72
2022/12/18 09:24:12;;;;;;;14.83;10.27;;;;;;;;;;5033413;28;20025;-72
2022/12/18 09:26:38;;;;;;;15.80;10.40;;;;;;;;;;5033049;28;20386;-73
2022/12/18 09:29:06;;;;;;;13.87;9.83;;;;;;;;;;5033272;28;20030;-72
2022/12/18 09:31:33;;;;;;;14.70;9.63;;;;;;;;;;5033149;28;20017;-72
2022/12/18 09:33:59;;;;;;;14.13;9.10;;;;;;;;;;5030334;28;20136;-73
2022/12/18 09:36:25;;;;;;;14.40;9.13;;;;;;;;;;5030370;28;20491;-73
2022/12/18 09:38:52;;;;;;;13.83;8.80;;;;;;;;;;5030481;28;20124;-73
2022/12/18 09:41:37;;;;;;;14.93;9.17;;;;;;;;;;5032872;28;20025;-72
2022/12/18 09:44:06;;;;;;;13.63;8.93;;;;;;;;;;5032948;28;20471;-73
2022/12/18 09:46:38;;;;;;;13.20;9.30;;;;;;;;;;5032687;28;20033;-73
2022/12/18 09:49:07;;;;;;;14.38;8.85;;;;;;;;;;5032815;28;20427;-72
2022/12/18 09:51:36;;;;;;;17.10;8.33;;;;;;;;;;5032560;28;20033;-72
2022/12/18 09:54:07;;;;;;;11.90;8.10;;;;;;;;;;5032690;28;20391;-73
2022/12/18 09:56:36;;;;;;;13.77;8.77;;;;;;;;;;5032240;28;20510;-72
2022/12/18 09:59:03;;;;;;;14.53;8.80;;;;;;;;;;5030167;28;20029;-73
2022/12/18 10:01:30;;;;;;;10.03;8.00;;;;;;;;;;5029874;28;20499;-73
2022/12/18 10:03:56;;;;;;;11.27;8.13;;;;;;;;;;5029880;28;20467;-73
2022/12/18 10:06:25;;;;;;;12.20;8.50;;;;;;;;;;5032394;28;20025;-73
2022/12/18 10:09:03;;;;;;;12.87;8.23;;;;;;;;;;5032223;28;20092;-77
2022/12/18 10:11:33;;;;;;;13.40;9.13;;;;;;;;;;5030576;28;20060;-72
2022/12/18 10:14:09;;;;;;;11.20;8.00;;;;;;;;;;5031907;28;20038;-73
2022/12/18 10:16:41;;;;;;;13.40;8.10;;;;;;;;;;5032107;28;20021;-73
2022/12/18 10:19:16;;;;;;;13.75;9.98;;;;;;;;;;5032320;28;20396;-74
2022/12/18 10:21:57;;;;;;;12.87;8.60;;;;;;;;;;5032048;28;20036;-73
2022/12/18 10:24:33;;;;;;;13.37;8.80;;;;;;;;;;5031942;28;20053;-73
2022/12/18 10:27:10;;;;;;;13.50;8.77;;;;;;;;;;5032518;28;20100;-74
2022/12/18 10:29:36;;;;;;;12.10;8.00;;;;;;;;;;5030612;28;20040;-73
2022/12/18 10:32:02;;;;;;;12.03;8.53;;;;;;;;;;5031937;28;20502;-75
2022/12/18 10:34:28;;;;;;;13.07;8.43;;;;;;;;;;5034872;28;20137;-78
2022/12/18 10:36:54;;;;;;;12.97;8.27;;;;;;;;;;5035857;28;20045;-74
2022/12/18 10:39:27;;;;;;;13.77;8.33;;;;;;;;;;5037518;28;20494;-78
2022/12/18 10:42:09;;;;;;;12.10;8.83;;;;;;;;;;5036212;28;20044;-80
2022/12/18 10:44:35;;;;;;;12.07;8.10;;;;;;;;;;5035687;28;20104;-78
2022/12/18 10:47:07;;;;;;;11.63;8.17;;;;;;;;;;5034350;28;20161;-76
2022/12/18 10:49:34;;;;;;;11.83;8.50;;;;;;;;;;5032774;28;20029;-79
2022/12/18 11:04:51;;;;;;;11.13;8.20;;;;;;;;;;5110143;27;20787;-75
2022/12/18 11:07:17;;;;;;;12.47;9.10;;;;;;;;;;5110310;28;20130;-74
2022/12/18 11:09:44;;;;;;;15.77;8.70;;;;;;;;;;5110465;28;20028;-75
2022/12/18 11:12:13;;;;;;;15.80;9.47;;;;;;;;;;5109580;28;20030;-73
2022/12/18 11:14:42;;;;;;;12.23;8.67;;;;;;;;;;5108522;28;20492;-77
2022/12/18 11:17:19;;;;;;;13.57;9.07;;;;;;;;;;5110226;28;20477;-74
2022/12/18 11:19:45;;;;;;;14.77;9.37;;;;;;;;;;5110859;28;20126;-75
2022/12/18 11:22:21;;;;;;;13.20;9.50;;;;;;;;;;5111246;28;20404;-72
2022/12/18 11:24:53;;;;;;;14.20;9.70;;;;;;;;;;5109804;28;20024;-72
2022/12/18 11:27:19;;;;;;;14.13;10.20;;;;;;;;;;5111031;28;20024;-72
2022/12/18 11:29:46;;;;;;;13.77;9.53;;;;;;;;;;5110535;28;20428;-72
2022/12/18 11:32:15;;;;;;;13.37;9.60;;;;;;;;;;5110740;28;20465;-72
2022/12/18 11:34:49;;;;;;;15.60;9.47;;;;;;;;;;5111094;28;20454;-72
2022/12/18 11:37:18;;;;;;;12.87;9.07;;;;;;;;;;5111029;28;20028;-73
2022/12/18 11:39:58;;;;;;;12.63;9.13;;;;;;;;;;5110860;28;20024;-73
2022/12/18 11:42:44;;;;;;;14.00;8.90;;;;;;;;;;5110773;28;20396;-72
2022/12/18 11:45:10;;;;;;;14.70;9.33;;;;;;;;;;5110481;28;20381;-76
2022/12/18 11:47:42;;;;;;;12.00;8.47;;;;;;;;;;5110596;28;20492;-72
2022/12/18 11:50:13;;;;;;;12.97;8.67;;;;;;;;;;5110346;28;20463;-73
2022/12/18 11:52:40;;;;;;;12.40;8.83;;;;;;;;;;5109275;28;20422;-73
2022/12/18 11:55:12;;;;;;;12.73;9.23;;;;;;;;;;5107319;28;20416;-74
2022/12/18 11:57:58;;;;;;;18.30;9.45;;;;;;;;;;5107599;28;20449;-74
2022/12/18 12:00:24;;;;;;;11.33;8.00;;;;;;;;;;5110166;28;20472;-73
2022/12/18 12:02:59;;;;;;;12.10;8.73;;;;;;;;;;5109781;28;20044;-72
2022/12/18 12:05:32;;;;;;;12.53;8.77;;;;;;;;;;5098427;28;20024;-73
2022/12/18 12:08:14;;;;;;;11.77;8.40;;;;;;;;;;5096413;28;20054;-73
2022/12/18 12:10:59;;;;;;;11.93;8.53;;;;;;;;;;5095983;28;20417;-74
2022/12/18 12:13:31;;;;;;;11.97;8.43;;;;;;;;;;5096061;28;20039;-73
2022/12/18 12:16:12;;;;;;;11.45;8.02;;;;;;;;;;5095980;28;20103;-72
2022/12/18 12:18:41;;;;;;;13.00;7.47;;;;;;;;;;5092433;28;20386;-72
2022/12/18 12:21:25;;;;;;;11.87;7.90;;;;;;;;;;5093092;28;20386;-73
2022/12/18 12:23:54;;;;;;;11.47;8.17;;;;;;;;;;5093301;28;20803;-74
2022/12/18 12:26:20;;;;;;;12.67;8.93;;;;;;;;;;5095313;28;20056;-74
2022/12/18 12:28:46;;;;;;;12.07;8.80;;;;;;;;;;5095554;28;20035;-74
2022/12/18 12:31:12;;;;;;;11.83;8.40;;;;;;;;;;5095188;28;20024;-73
2022/12/18 12:33:49;;;;;;;12.07;7.83;;;;;;;;;;5095121;28;20036;-72
2022/12/18 12:36:33;;;;;;;11.63;8.43;;;;;;;;;;5094071;28;20032;-73
2022/12/18 12:39:02;;;;;;;12.10;8.30;;;;;;;;;;5095217;28;20031;-72
2022/12/18 12:44:17;;;;;;;11.57;8.50;;;;;;;;;;5095101;28;20050;-72
2022/12/18 12:46:44;;;;;;;12.90;9.27;;;;;;;;;;5095188;28;20526;-73
2022/12/18 12:49:18;;;;;;;12.23;8.40;;;;;;;;;;5094603;28;20473;-75
2022/12/18 12:51:46;;;;;;;10.60;8.33;;;;;;;;;;5094922;28;20024;-75
2022/12/18 12:54:16;;;;;;;12.50;8.60;;;;;;;;;;5094799;28;20047;-74
2022/12/18 12:56:42;;;;;;;12.50;8.53;;;;;;;;;;5094547;28;20473;-75
2022/12/18 12:59:10;;;;;;;11.17;8.30;;;;;;;;;;5094949;28;20035;-75
2022/12/18 13:01:40;;;;;;;12.77;8.87;;;;;;;;;;5095052;28;20035;-74
2022/12/18 13:04:13;;;;;;;12.87;8.70;;;;;;;;;;5094378;28;20131;-75
2022/12/18 13:06:39;;;;;;;;;;;;;;;;;;5096084;28;20028;-73
2022/12/18 13:09:05;;;;;;;12.60;8.87;;;;;;;;;;5094429;28;19911;-73
2022/12/18 13:14:29;;;;;;;12.37;8.33;;;;;;;;;;5095083;28;20085;-73
2022/12/18 13:17:13;;;;;;;15.03;8.60;;;;;;;;;;5094354;28;20414;-73
2022/12/18 13:19:39;;;;;;;12.37;8.53;;;;;;;;;;5094877;28;20381;-73
2022/12/18 13:22:21;;;;;;;14.03;8.87;;;;;;;;;;5095373;28;20431;-72
2022/12/18 13:24:47;;;;;;;12.40;8.70;;;;;;;;;;5095022;28;20016;-72
2022/12/18 13:27:32;;;;;;;12.47;9.07;;;;;;;;;;5094758;28;20416;-73
2022/12/18 13:29:58;;;;;;;13.70;8.47;;;;;;;;;;5094730;28;20409;-75
2022/12/18 13:32:25;;;;;;;13.60;9.33;;;;;;;;;;5094668;28;20024;-73
2022/12/18 13:35:12;;;;;;;13.83;9.43;;;;;;;;;;5093187;28;20020;-73
2022/12/18 13:37:42;;;;;;;15.63;10.10;;;;;;;;;;5083334;28;20374;-73
2022/12/18 13:40:27;;;;;;;13.27;9.50;;;;;;;;;;5094489;28;20031;-73
2022/12/18 13:45:41;;;;;;;12.93;9.33;;;;;;;;;;5094366;28;20051;-73
2022/12/18 13:48:15;;;;;;;13.23;9.10;;;;;;;;;;5093743;28;20495;-74
2022/12/18 13:50:41;;;;;;;13.53;8.83;;;;;;;;;;5093095;28;20532;-74
2022/12/18 13:53:07;;;;;;;12.37;9.47;;;;;;;;;;5093133;28;20481;-74
2022/12/18 13:55:34;;;;;;;11.63;8.33;;;;;;;;;;5094261;28;20370;-74
2022/12/18 13:58:06;;;;;;;12.87;9.20;;;;;;;;;;5093975;28;20031;-74
2022/12/18 14:00:32;;;;;;;13.25;9.68;;;;;;;;;;5093968;28;20456;-74
2022/12/18 14:02:59;;;;;;;12.93;9.57;;;;;;;;;;5093842;28;20066;-73
2022/12/18 14:05:26;;;;;;;16.10;9.67;;;;;;;;;;5094210;28;20056;-73
2022/12/18 14:07:53;;;;;;;13.60;9.30;;;;;;;;;;5093722;28;20035;-73
2022/12/18 14:10:20;;;;;;;15.43;9.80;;;;;;;;;;5093590;28;20024;-73
2022/12/18 14:12:57;;;;;;;14.60;9.73;;;;;;;;;;5093734;28;20418;-73
2022/12/18 14:15:26;;;;;;;14.50;10.13;;;;;;;;;;5093855;28;20020;-72
2022/12/18 14:18:16;;;;;;;12.80;9.27;;;;;;;;;;5092520;28;20388;-72
2022/12/18 14:20:44;;;;;;;12.97;9.30;;;;;;;;;;5093544;28;20373;-74
2022/12/18 14:23:29;;;;;;;13.60;9.40;;;;;;;;;;5093310;28;20350;-73
2022/12/18 14:25:55;;;;;;;13.90;9.63;;;;;;;;;;5092202;28;20435;-73
2022/12/18 14:28:25;;;;;;;13.50;9.27;;;;;;;;;;5093010;28;20031;-73
2022/12/18 14:30:51;;;;;;;13.63;9.60;;;;;;;;;;5093358;28;20385;-73
2022/12/18 14:33:18;;;;;;;15.23;9.50;;;;;;;;;;5093130;28;20563;-73
2022/12/18 14:36:04;;;;;;;14.53;9.97;;;;;;;;;;5093664;28;20103;-73
2022/12/18 14:38:34;;;;;;;14.03;9.37;;;;;;;;;;5093071;28;20421;-75
2022/12/18 14:41:01;;;;;;;15.10;10.23;;;;;;;;;;5093468;28;20111;-72
2022/12/18 14:43:28;;;;;;;14.00;10.37;;;;;;;;;;5093423;28;20085;-75
2022/12/18 14:45:54;;;;;;;13.23;9.60;;;;;;;;;;5093139;28;20020;-72
2022/12/18 14:48:22;;;;;;;15.10;10.20;;;;;;;;;;5092350;28;20081;-73
2022/12/18 14:50:56;;;;;;;15.27;11.43;;;;;;;;;;5093499;28;20073;-73
2022/12/18 14:53:45;;;;;;;12.27;8.87;;;;;;;;;;5094009;28;20107;-73
2022/12/18 14:56:32;;;;;;;14.27;10.40;;;;;;;;;;5092681;28;20369;-74
2022/12/18 14:59:03;;;;;;;15.40;10.10;;;;;;;;;;5093762;28;20024;-72
2022/12/18 15:01:35;;;;;;;15.70;10.60;;;;;;;;;;5093658;28;20409;-73
2022/12/18 15:04:02;;;;;;;14.40;10.20;;;;;;;;;;5093740;28;20036;-73
2022/12/18 15:06:31;;;;;;;13.57;9.77;;;;;;;;;;5092303;28;20428;-73
2022/12/18 15:08:59;;;;;;;17.27;11.67;;;;;;;;;;5092344;28;21018;-73
2022/12/18 15:11:40;;;;;;;16.70;11.93;;;;;;;;;;5093497;28;20385;-74
2022/12/18 15:14:35;;;;;;;14.90;10.53;;;;;;;;;;5093731;28;20492;-73
2022/12/18 15:17:03;;;;;;;15.30;10.23;;;;;;;;;;5084398;28;20036;-73
2022/12/18 15:19:38;;;;;;;15.53;10.63;;;;;;;;;;5093068;28;20032;-74
2022/12/18 15:22:04;;;;;;;16.03;11.03;;;;;;;;;;5093063;28;20381;-73